Bad Axe, Michigan
Current Conditions -  °F | °C
As of 3:56 PM on Thursday 20 Nov 2014 (Local Time) from KBAX Reporting Station
Scattered Clouds Scattered Clouds  
Wind Chill:   Ceiling: Unl
Heat Index: 20°   Visibility: 10mi
Dew Point: 13°   Wind: 14mph
Humidity: 73%   Direction: 270°W
Pressure: 29.88"   Gusts: 22mph
Location:  43.8°N, 83°W
Report Text: KBAX 202056Z AUTO 27012G19KT 10SM SCT005 SCT047 SCT060 M06/M11 A2988 RMK AO2 T10651106
Loading
Personal Weather Stations






























Interactive Weather Map New forecast layout! Learn more

10-Day Weather Forecast

Advertisements
Track Severe Weather on mobile